Report METAR

 

LIML - Milano/Linate, Italy
Distance from station: NO 27km
Dati ricevuti: 20/09/2018 16:20
Sereno
Sereno
 Vento da S
Vento: S 7 km/h
Temperatura: 29°C
Indice di Calore: 29°C
P.to Rugiada: 17°C
Umidità: 48%
Barometro: 1018 hPa
Summary: Sereno
Visibility: superiore a 10 km
2018/09/20 14:20 LIML 201420Z 18004KT 100V230 CAVOK 29/17 Q1018 NOSIG
LIME - Bergamo/Orio Ser, Italy
Distance from station: NNE 43km
Dati ricevuti: 20/09/2018 16:20
Few Clouds
Few Clouds
 Vento da Variabile
Vento: Variabile 9 km/h
Temperatura: 28°C
Indice di Calore: 28°C
P.to Rugiada: 17°C
Umidità: 51%
Barometro: 1018 hPa
Nuvole: Few Clouds
Visibility: 10 km
Cloud details: Few Clouds 1524 m
2018/09/20 14:20 LIME 201420Z VRB05KT 9999 FEW050 28/17 Q1018 NOSIG
 
LIMS - Piacenza, it-Afb, Italy
Distance from station: SSE 45km
Dati ricevuti: 20/09/2018 15:55
Sereno
Sereno
 Vento da ESE
Vento: ESE 6 km/h
Temperatura: 28°C
Indice di Calore: 29°C
P.to Rugiada: 18°C
Umidità: 55%
Barometro: 1017 hPa
Summary: Sereno
Visibility: superiore a 10 km
2018/09/20 13:55 LIMS 201355Z 12003KT CAVOK 28/18 Q1017
LIPO - Brescia/Montichi, Italy
Distance from station: ENE 65km
Dati ricevuti: 20/09/2018 15:50
Sereno
Sereno
 Vento da OSO
Vento: OSO 4 km/h
Temperatura: 29°C
Indice di Calore: 29°C
P.to Rugiada: 15°C
Umidità: 43%
Barometro: 1018 hPa
Summary: Sereno
Visibility: superiore a 10 km
2018/09/20 13:50 LIPO 201350Z 25002KT CAVOK 29/15 Q1018